Lingle, Wyoming
Current Conditions -  °F | °C
As of 12:53 AM on Friday 21 Nov 2014 (Local Time) from KTOR Reporting Station
Clear Clear  
Wind Chill: 26°   Ceiling: Unl
Heat Index: 26°   Visibility: 10mi
Dew Point: 18°   Wind: 3mph
Humidity: 71%   Direction: 70°ENE
Pressure: 29.91"   Gusts: NA
Location:  42.14°N, 104.35°W
Report Text: KTOR 210753Z AUTO 07003KT 10SM CLR M03/M08 A2991 RMK AO2 SLP139 T10331078
Loading
Personal Weather Stations






























Interactive Weather Map New forecast layout! Learn more

10-Day Weather Forecast

Advertisements
Track Severe Weather on mobile